createdAt,value
2023-03-07T00:01:30.381Z,22.52
2023-03-07T00:03:59.831Z,21.02
2023-03-07T00:06:28.662Z,20.50
2023-03-07T00:09:00.106Z,21.52
2023-03-07T00:11:28.963Z,21.92
2023-03-07T00:13:57.899Z,20.70
2023-03-07T00:16:26.560Z,22.02
2023-03-07T00:18:55.710Z,21.98
2023-03-07T00:21:24.322Z,20.27
2023-03-07T00:23:53.436Z,20.77
2023-03-07T00:26:23.565Z,22.92
2023-03-07T00:28:53.664Z,21.52
2023-03-07T00:31:22.782Z,19.63
2023-03-07T00:33:51.891Z,21.67
2023-03-07T00:36:22.312Z,21.65
2023-03-07T00:38:51.525Z,21.63
2023-03-07T00:41:23.344Z,20.83
2023-03-07T00:43:53.163Z,20.77
2023-03-07T00:46:23.200Z,22.38
2023-03-07T00:48:52.545Z,21.20
2023-03-07T00:51:22.033Z,21.85
2023-03-07T00:53:51.297Z,20.23
2023-03-07T00:56:24.282Z,22.05
2023-03-07T00:58:53.372Z,21.03
2023-03-07T01:01:24.605Z,21.55
2023-03-07T01:03:54.409Z,20.80
2023-03-07T01:06:26.114Z,20.45
2023-03-07T01:08:58.548Z,23.38
2023-03-07T01:11:28.676Z,21.58
2023-03-07T01:14:03.231Z,22.20
2023-03-07T01:16:35.562Z,21.45
2023-03-07T01:19:07.547Z,21.83
2023-03-07T01:21:39.294Z,22.75
2023-03-07T01:24:10.857Z,21.00
2023-03-07T01:26:39.513Z,21.30
2023-03-07T01:29:08.569Z,21.27
2023-03-07T01:31:38.548Z,21.52
2023-03-07T01:34:07.862Z,20.98
2023-03-07T01:36:38.090Z,22.27
2023-03-07T01:39:14.836Z,22.48
2023-03-07T01:41:57.366Z,21.38
2023-03-07T01:44:31.278Z,20.85
2023-03-07T01:47:00.891Z,21.30
2023-03-07T01:49:51.034Z,22.13
2023-03-07T01:52:38.071Z,21.23
2023-03-07T01:55:23.615Z,21.95
2023-03-07T01:57:56.250Z,22.70
2023-03-07T02:00:31.758Z,20.70
2023-03-07T02:03:22.238Z,20.60
2023-03-07T02:05:55.480Z,20.90
2023-03-07T02:08:26.868Z,20.05
2023-03-07T02:10:55.808Z,21.45
2023-03-07T02:13:24.416Z,22.00
2023-03-07T02:15:53.319Z,23.25
2023-03-07T02:18:25.913Z,23.25
2023-03-07T02:21:23.875Z,21.90
2023-03-07T02:24:12.204Z,22.65
2023-03-07T02:26:48.368Z,22.13
2023-03-07T02:29:16.917Z,21.50
2023-03-07T02:31:48.353Z,22.20
2023-03-07T02:34:26.835Z,20.90
2023-03-07T02:37:18.954Z,23.40
2023-03-07T02:39:48.675Z,22.70
2023-03-07T02:42:24.973Z,22.98
2023-03-07T02:45:01.481Z,23.63
2023-03-07T02:47:34.331Z,21.60
2023-03-07T02:50:04.067Z,23.52
2023-03-07T02:52:33.576Z,23.67
2023-03-07T02:55:02.200Z,23.60
2023-03-07T03:00:10.519Z,21.02
2023-03-07T03:02:39.456Z,24.33
2023-03-07T03:05:08.686Z,24.10
2023-03-07T03:07:37.575Z,22.83
2023-03-07T03:10:06.894Z,23.15
2023-03-07T03:12:36.177Z,22.60
2023-03-07T03:15:06.716Z,23.10
2023-03-07T03:17:35.778Z,23.70
2023-03-07T03:20:12.981Z,23.20
2023-03-07T03:22:42.118Z,22.95
2023-03-07T03:25:13.959Z,22.75
2023-03-07T03:27:44.969Z,25.48
2023-03-07T03:30:15.867Z,25.15
2023-03-07T03:32:45.196Z,24.73
2023-03-07T03:35:16.309Z,23.95
2023-03-07T03:37:46.180Z,24.98
2023-03-07T03:40:14.925Z,24.33
2023-03-07T03:42:45.698Z,23.75
2023-03-07T03:45:16.335Z,23.35
2023-03-07T03:47:45.342Z,23.90
2023-03-07T03:50:14.277Z,22.10
2023-03-07T03:52:45.465Z,21.92
2023-03-07T03:55:14.552Z,22.13
2023-03-07T03:57:43.817Z,22.42
2023-03-07T04:00:15.301Z,23.15
2023-03-07T04:02:44.798Z,21.48
2023-03-07T04:05:17.546Z,22.92
2023-03-07T04:07:46.297Z,22.55
2023-03-07T04:10:15.064Z,24.05
2023-03-07T04:12:43.942Z,22.10
2023-03-07T04:15:12.742Z,21.42
2023-03-07T04:17:41.560Z,22.48
2023-03-07T04:20:17.745Z,23.98
2023-03-07T04:22:48.895Z,21.00
2023-03-07T04:25:18.366Z,21.98
2023-03-07T04:27:47.154Z,22.60
2023-03-07T04:30:15.830Z,22.95
2023-03-07T04:32:45.155Z,22.50
2023-03-07T04:35:13.634Z,22.23
2023-03-07T04:37:42.392Z,23.05
2023-03-07T04:40:12.232Z,23.92
2023-03-07T04:42:41.931Z,22.42
2023-03-07T04:45:12.591Z,22.05
2023-03-07T04:47:41.462Z,22.63
2023-03-07T04:50:11.285Z,21.75
2023-03-07T04:52:41.835Z,20.10
2023-03-07T04:55:11.173Z,22.08
2023-03-07T04:57:40.632Z,22.40
2023-03-07T05:00:10.392Z,22.13
2023-03-07T05:02:40.056Z,21.40
2023-03-07T05:05:09.217Z,23.23
2023-03-07T05:07:38.003Z,20.95
2023-03-07T05:10:07.535Z,22.48
2023-03-07T05:12:36.645Z,18.88
2023-03-07T05:15:07.378Z,19.52
2023-03-07T05:17:37.038Z,21.23
2023-03-07T05:20:07.326Z,20.95
2023-03-07T05:22:37.767Z,19.85
2023-03-07T05:25:07.984Z,20.00
2023-03-07T05:27:37.050Z,21.10
2023-03-07T05:30:06.328Z,20.13
2023-03-07T05:32:35.461Z,21.35
2023-03-07T05:35:05.415Z,20.70
2023-03-07T05:37:34.237Z,19.50
2023-03-07T05:40:06.021Z,21.17
2023-03-07T05:42:34.842Z,21.63
2023-03-07T05:45:06.015Z,20.27
2023-03-07T05:47:35.011Z,20.23
2023-03-07T05:50:04.228Z,20.67
2023-03-07T05:52:33.400Z,21.13
2023-03-07T05:55:01.903Z,19.98
2023-03-07T05:57:30.888Z,20.30
2023-03-07T05:59:59.712Z,20.60
2023-03-07T06:02:29.212Z,20.73
2023-03-07T06:04:57.925Z,18.10
2023-03-07T06:07:27.434Z,19.83
2023-03-07T06:09:56.237Z,19.23
2023-03-07T06:12:25.238Z,19.50
2023-03-07T06:14:53.713Z,20.70
2023-03-07T06:17:22.519Z,20.25
2023-03-07T06:19:51.531Z,20.30
2023-03-07T06:22:21.401Z,21.50
2023-03-07T06:24:49.999Z,19.20
2023-03-07T06:27:18.856Z,19.45
2023-03-07T06:29:47.731Z,19.20
2023-03-07T06:32:16.756Z,20.15
2023-03-07T06:34:45.278Z,21.42
2023-03-07T06:37:14.460Z,19.95
2023-03-07T06:39:43.342Z,21.02
2023-03-07T06:42:12.169Z,21.52
2023-03-07T06:44:42.911Z,21.05
2023-03-07T06:47:32.713Z,21.50
2023-03-07T06:50:02.743Z,22.05
2023-03-07T06:52:33.886Z,22.48
2023-03-07T06:55:02.478Z,24.10
2023-03-07T06:57:34.133Z,28.23
2023-03-07T07:00:07.073Z,24.23
2023-03-07T07:02:36.251Z,25.55
2023-03-07T07:05:06.450Z,23.98
2023-03-07T07:07:36.560Z,23.05
2023-03-07T07:10:05.550Z,23.63
2023-03-07T07:12:34.760Z,22.65
2023-03-07T07:15:05.840Z,24.52
2023-03-07T07:17:39.394Z,22.77
2023-03-07T07:20:11.486Z,23.88
2023-03-07T07:22:42.448Z,24.65
2023-03-07T07:25:11.258Z,24.08
2023-03-07T07:27:39.987Z,23.90
2023-03-07T07:30:09.272Z,24.38
2023-03-07T07:32:39.028Z,24.40
2023-03-07T07:35:08.618Z,26.55
2023-03-07T07:37:38.313Z,25.27
2023-03-07T07:40:10.424Z,26.00
2023-03-07T07:42:39.940Z,24.90
2023-03-07T07:45:21.037Z,25.50
2023-03-07T07:47:51.102Z,25.77
2023-03-07T07:50:21.523Z,25.17
2023-03-07T07:52:52.848Z,24.70
2023-03-07T07:55:21.766Z,24.63
2023-03-07T07:57:51.226Z,26.88
2023-03-07T08:00:23.534Z,25.52
2023-03-07T08:02:52.451Z,26.40
2023-03-07T08:05:21.447Z,29.17
2023-03-07T08:07:50.604Z,26.58
2023-03-07T08:10:19.687Z,27.35
2023-03-07T08:12:52.965Z,27.35
2023-03-07T08:15:22.102Z,28.75
2023-03-07T08:17:51.582Z,27.67
2023-03-07T08:20:22.627Z,29.10
2023-03-07T08:22:53.076Z,28.63
2023-03-07T08:25:24.089Z,27.40
2023-03-07T08:27:55.201Z,29.27
2023-03-07T08:30:28.349Z,29.38
2023-03-07T08:32:57.810Z,29.73
2023-03-07T08:35:27.297Z,29.63
2023-03-07T08:37:58.339Z,28.52
2023-03-07T08:40:30.373Z,30.75
2023-03-07T08:42:59.961Z,27.23
2023-03-07T08:45:28.368Z,29.38
2023-03-07T08:47:57.609Z,28.00
2023-03-07T08:50:28.083Z,30.60
2023-03-07T08:52:58.169Z,29.83
2023-03-07T08:55:26.496Z,27.77
2023-03-07T08:57:55.390Z,28.23
2023-03-07T09:00:23.849Z,29.73
2023-03-07T09:02:54.739Z,30.27
2023-03-07T09:05:23.193Z,28.52
2023-03-07T09:07:51.927Z,31.45
2023-03-07T09:10:21.133Z,30.30
2023-03-07T09:12:51.370Z,29.52
2023-03-07T09:15:19.786Z,30.70
2023-03-07T09:17:49.047Z,31.30
2023-03-07T09:20:18.237Z,29.98
2023-03-07T09:22:47.242Z,29.75
2023-03-07T09:25:15.947Z,30.00
2023-03-07T09:27:45.953Z,28.90
2023-03-07T09:30:15.296Z,30.55
2023-03-07T09:32:44.332Z,28.73
2023-03-07T09:35:12.880Z,29.38
2023-03-07T09:37:41.913Z,27.67
2023-03-07T09:40:18.420Z,30.85
2023-03-07T09:43:26.913Z,28.15
2023-03-07T09:47:10.789Z,27.83
2023-03-07T09:49:51.045Z,27.42
2023-03-07T09:52:29.107Z,27.02
2023-03-07T09:55:06.413Z,25.63
2023-03-07T09:57:51.707Z,27.70
2023-03-07T10:00:42.926Z,28.00
2023-03-07T10:03:20.693Z,25.85
2023-03-07T10:05:52.668Z,26.77
2023-03-07T10:08:30.057Z,26.30
2023-03-07T10:11:30.030Z,29.77
2023-03-07T10:14:35.831Z,25.50
2023-03-07T10:17:26.126Z,27.33
2023-03-07T10:20:00.635Z,24.83
2023-03-07T10:22:43.952Z,25.02
2023-03-07T10:25:26.818Z,25.23
2023-03-07T10:28:22.116Z,24.00
2023-03-07T10:30:52.316Z,23.35
2023-03-07T10:33:21.242Z,25.73
2023-03-07T10:36:16.436Z,24.15
2023-03-07T10:39:23.460Z,23.23
2023-03-07T10:41:51.919Z,24.20
2023-03-07T10:44:21.495Z,25.45
2023-03-07T10:46:57.497Z,24.88
2023-03-07T10:49:37.024Z,25.83
2023-03-07T10:52:34.730Z,23.65
2023-03-07T10:55:43.300Z,23.67
2023-03-07T10:58:28.453Z,24.38
2023-03-07T11:01:08.862Z,24.45
2023-03-07T11:03:54.164Z,24.25
2023-03-07T11:06:46.531Z,23.75
2023-03-07T11:09:22.748Z,23.17
2023-03-07T11:12:04.778Z,22.98
2023-03-07T11:14:51.846Z,23.73
2023-03-07T11:17:46.414Z,22.58
2023-03-07T11:20:46.793Z,22.48
2023-03-07T11:23:26.366Z,22.65
2023-03-07T11:25:56.179Z,22.83
2023-03-07T11:28:29.700Z,21.55
2023-03-07T11:31:21.314Z,21.65
2023-03-07T11:34:00.404Z,22.83
2023-03-07T11:36:32.928Z,20.45
2023-03-07T11:39:24.520Z,21.30
2023-03-07T11:41:56.776Z,21.75
2023-03-07T11:44:40.660Z,23.95
2023-03-07T11:47:33.938Z,23.30
2023-03-07T11:53:22.962Z,24.13
2023-03-07T11:56:28.351Z,22.27
2023-03-07T11:59:15.031Z,21.48
2023-03-07T12:01:57.096Z,19.48
2023-03-07T12:04:49.543Z,20.98
2023-03-07T12:07:32.056Z,20.33
2023-03-07T12:10:40.136Z,20.77
2023-03-07T12:13:22.406Z,20.58
2023-03-07T12:16:20.904Z,22.33
2023-03-07T12:19:13.733Z,22.10
2023-03-07T12:22:19.377Z,21.27
2023-03-07T12:25:08.562Z,19.45
2023-03-07T12:28:01.696Z,18.60
2023-03-07T12:33:06.328Z,16.02
2023-03-07T12:35:47.060Z,18.40
2023-03-07T12:38:36.670Z,17.00
2023-03-07T12:41:54.848Z,16.25
2023-03-07T12:44:47.786Z,15.73
2023-03-07T12:47:29.512Z,15.50
2023-03-07T12:50:44.574Z,14.38
2023-03-07T12:53:36.071Z,15.43
2023-03-07T12:56:30.187Z,13.82
2023-03-07T12:59:16.167Z,15.32
2023-03-07T13:01:54.064Z,14.63
2023-03-07T13:04:38.215Z,15.05
2023-03-07T13:07:27.830Z,13.50
2023-03-07T13:09:59.140Z,13.07
2023-03-07T13:12:36.160Z,12.63
2023-03-07T13:16:14.752Z,11.65
2023-03-07T13:18:43.178Z,12.38
2023-03-07T13:21:33.600Z,11.77
2023-03-07T13:24:37.119Z,12.40
2023-03-07T13:30:10.391Z,11.02
2023-03-07T13:32:51.360Z,10.63
2023-03-07T13:35:31.451Z,11.23
2023-03-07T13:38:21.024Z,9.57
2023-03-07T13:40:58.809Z,9.70
2023-03-07T13:43:28.456Z,10.18
2023-03-07T13:46:25.374Z,9.02
2023-03-07T13:48:54.399Z,9.88
2023-03-07T13:51:23.288Z,8.93
2023-03-07T13:54:16.049Z,9.90
2023-03-07T13:56:44.528Z,9.75
2023-03-07T13:59:24.717Z,9.38
2023-03-07T14:01:58.219Z,8.45
2023-03-07T14:04:52.089Z,9.40
2023-03-07T14:10:26.998Z,8.32
2023-03-07T14:13:15.907Z,8.80
2023-03-07T14:15:56.300Z,7.80
2023-03-07T14:19:08.363Z,9.48
2023-03-07T14:22:01.401Z,9.63
2023-03-07T14:25:24.358Z,7.97
2023-03-07T14:28:01.223Z,8.20
2023-03-07T14:30:32.397Z,9.38
2023-03-07T14:33:01.483Z,8.18
2023-03-07T14:35:44.074Z,7.50
2023-03-07T14:38:24.828Z,7.78
2023-03-07T14:41:25.729Z,8.45
2023-03-07T14:44:20.498Z,7.45
2023-03-07T14:46:56.154Z,8.40
2023-03-07T14:49:55.578Z,8.70
2023-03-07T14:52:31.213Z,7.78
2023-03-07T14:55:02.106Z,8.70
2023-03-07T14:57:40.558Z,8.43
2023-03-07T15:00:23.511Z,7.68
2023-03-07T15:03:10.958Z,8.05
2023-03-07T15:05:53.417Z,8.30
2023-03-07T15:08:38.514Z,7.28
2023-03-07T15:11:37.059Z,8.15
2023-03-07T15:14:12.856Z,7.85
2023-03-07T15:16:46.776Z,8.13
2023-03-07T15:19:22.044Z,7.05
2023-03-07T15:21:56.612Z,7.53
2023-03-07T15:24:38.997Z,7.57
2023-03-07T15:27:10.794Z,8.23
2023-03-07T15:29:39.645Z,6.97
2023-03-07T15:32:41.858Z,8.32
2023-03-07T15:35:11.093Z,7.82
2023-03-07T15:37:55.863Z,7.80
2023-03-07T15:40:33.738Z,8.48
2023-03-07T15:43:05.201Z,7.90
2023-03-07T15:45:39.683Z,7.90
2023-03-07T15:48:48.048Z,8.15
2023-03-07T15:51:19.413Z,8.20
2023-03-07T15:54:16.364Z,7.30
2023-03-07T15:56:45.963Z,7.97
2023-03-07T15:59:20.449Z,7.78
2023-03-07T16:01:48.922Z,8.20
2023-03-07T16:04:43.097Z,7.97
2023-03-07T16:07:18.348Z,7.78
2023-03-07T16:09:47.218Z,8.10
2023-03-07T16:12:18.060Z,8.13
2023-03-07T16:14:51.067Z,8.02
2023-03-07T16:17:34.405Z,8.55
2023-03-07T16:20:04.789Z,7.82
2023-03-07T16:22:33.284Z,7.60
2023-03-07T16:25:02.642Z,7.53
2023-03-07T16:27:31.191Z,7.70
2023-03-07T16:30:00.328Z,7.10
2023-03-07T16:32:28.923Z,7.30
2023-03-07T16:34:57.893Z,6.68
2023-03-07T16:37:26.503Z,7.10
2023-03-07T16:39:55.341Z,7.00
2023-03-07T16:42:23.934Z,7.22
2023-03-07T16:44:52.790Z,7.38
2023-03-07T16:47:21.327Z,6.75
2023-03-07T16:49:51.266Z,7.72
2023-03-07T16:52:20.015Z,7.07
2023-03-07T16:54:48.871Z,6.13
2023-03-07T16:57:17.608Z,6.63
2023-03-07T16:59:47.264Z,6.32
2023-03-07T17:02:18.264Z,6.07
2023-03-07T17:04:47.616Z,6.85
2023-03-07T17:07:18.202Z,6.10
2023-03-07T17:09:46.983Z,5.30
2023-03-07T17:12:15.498Z,6.38
2023-03-07T17:14:44.829Z,6.10
2023-03-07T17:17:21.953Z,6.03
2023-03-07T17:19:50.947Z,5.88
2023-03-07T17:22:20.328Z,4.88
2023-03-07T17:24:49.805Z,5.35
2023-03-07T17:27:18.584Z,5.15
2023-03-07T17:29:53.032Z,5.30
2023-03-07T17:32:21.712Z,4.97
2023-03-07T17:34:50.651Z,5.13
2023-03-07T17:37:19.225Z,5.20
2023-03-07T17:39:48.641Z,4.75
2023-03-07T17:42:18.012Z,5.07
2023-03-07T17:44:47.147Z,4.85
2023-03-07T17:47:15.741Z,5.38
2023-03-07T17:49:46.740Z,4.93
2023-03-07T17:52:15.486Z,4.20
2023-03-07T17:54:46.367Z,5.65
2023-03-07T17:57:15.694Z,4.63
2023-03-07T17:59:44.498Z,5.55
2023-03-07T18:02:13.641Z,5.95
2023-03-07T18:04:42.609Z,5.38
2023-03-07T18:07:11.017Z,4.57
2023-03-07T18:09:39.884Z,4.30
2023-03-07T18:12:09.058Z,4.93
2023-03-07T18:14:37.755Z,4.07
2023-03-07T18:17:06.173Z,4.72
2023-03-07T18:19:35.526Z,4.93
2023-03-07T18:22:05.088Z,5.05
2023-03-07T18:24:34.117Z,4.80
2023-03-07T18:27:03.619Z,5.25
2023-03-07T18:29:32.579Z,4.75
2023-03-07T18:32:01.281Z,4.68
2023-03-07T18:34:30.081Z,5.38
2023-03-07T18:36:58.686Z,5.70
2023-03-07T18:39:27.561Z,4.82
2023-03-07T18:41:56.014Z,4.93
2023-03-07T18:44:25.002Z,4.65
2023-03-07T18:46:53.652Z,6.13
2023-03-07T18:49:22.790Z,4.60
2023-03-07T18:51:51.195Z,5.28
2023-03-07T18:54:20.049Z,5.18
2023-03-07T18:56:48.601Z,5.20
2023-03-07T18:59:17.679Z,4.55
2023-03-07T19:01:50.442Z,5.60
2023-03-07T19:04:19.561Z,4.65
2023-03-07T19:06:48.904Z,4.95
2023-03-07T19:09:20.330Z,4.78
2023-03-07T19:11:48.915Z,5.43
2023-03-07T19:14:18.582Z,5.55
2023-03-07T19:16:47.145Z,4.97
2023-03-07T19:19:16.034Z,5.43
2023-03-07T19:21:44.567Z,5.35
2023-03-07T19:24:13.497Z,5.13
2023-03-07T19:26:43.486Z,6.20
2023-03-07T19:29:13.349Z,5.68
2023-03-07T19:31:44.137Z,4.80
2023-03-07T19:34:13.089Z,5.07
2023-03-07T19:36:41.871Z,5.72
2023-03-07T19:39:15.167Z,5.43
2023-03-07T19:44:14.853Z,5.20
2023-03-07T19:46:46.616Z,5.03
2023-03-07T19:49:18.113Z,5.25
2023-03-07T19:51:46.740Z,5.18
2023-03-07T19:54:15.796Z,4.65
2023-03-07T19:56:45.780Z,5.00
2023-03-07T19:59:14.635Z,4.93
2023-03-07T20:01:43.348Z,4.80
2023-03-07T20:04:13.270Z,5.15
2023-03-07T20:06:42.578Z,5.00
2023-03-07T20:09:13.060Z,5.00
2023-03-07T20:11:43.627Z,4.43
2023-03-07T20:14:13.007Z,4.60
2023-03-07T20:16:41.472Z,4.35
2023-03-07T20:19:10.701Z,5.15
2023-03-07T20:21:40.406Z,4.55
2023-03-07T20:24:09.472Z,5.13
2023-03-07T20:26:39.012Z,5.75
2023-03-07T20:29:08.128Z,5.82
2023-03-07T20:31:37.137Z,4.55
2023-03-07T20:34:06.225Z,4.40
2023-03-07T20:36:36.553Z,5.30
2023-03-07T20:39:08.369Z,5.40
2023-03-07T20:41:36.928Z,5.47
2023-03-07T20:44:07.567Z,4.90
2023-03-07T20:46:37.346Z,4.85
2023-03-07T20:49:06.208Z,3.97
2023-03-07T20:51:36.486Z,5.05
2023-03-07T20:54:09.046Z,6.38
2023-03-07T20:56:38.202Z,4.80
2023-03-07T20:59:07.536Z,5.40
2023-03-07T21:01:36.289Z,5.40
2023-03-07T21:04:12.436Z,5.13
2023-03-07T21:06:42.933Z,5.20
2023-03-07T21:09:13.150Z,5.68
2023-03-07T21:11:46.926Z,5.70
2023-03-07T21:14:16.663Z,6.93
2023-03-07T21:16:45.337Z,6.00
2023-03-07T21:19:14.281Z,5.68
2023-03-07T21:21:42.887Z,5.55
2023-03-07T21:24:12.543Z,5.63
2023-03-07T21:26:41.180Z,5.68
2023-03-07T21:29:11.306Z,5.68
2023-03-07T21:31:39.923Z,5.03
2023-03-07T21:34:14.795Z,5.75
2023-03-07T21:36:43.353Z,4.95
2023-03-07T21:39:12.211Z,6.15
2023-03-07T21:41:41.205Z,5.90
2023-03-07T21:44:10.386Z,4.82
2023-03-07T21:46:38.824Z,5.15
2023-03-07T21:49:07.824Z,6.07
2023-03-07T21:51:36.339Z,6.35
2023-03-07T21:54:05.294Z,5.63
2023-03-07T21:56:33.813Z,5.18
2023-03-07T21:59:02.603Z,5.05
2023-03-07T22:01:31.208Z,5.35
2023-03-07T22:04:00.223Z,5.05
2023-03-07T22:06:29.040Z,5.55
2023-03-07T22:08:59.934Z,5.20
2023-03-07T22:11:28.451Z,5.07
2023-03-07T22:13:57.276Z,5.57
2023-03-07T22:16:25.761Z,5.82
2023-03-07T22:18:55.805Z,5.15
2023-03-07T22:21:27.950Z,5.55
2023-03-07T22:24:01.330Z,5.13
2023-03-07T22:28:59.241Z,5.78
2023-03-07T22:31:27.754Z,5.15
2023-03-07T22:33:58.301Z,4.97
2023-03-07T22:36:26.712Z,4.93
2023-03-07T22:38:55.895Z,5.10
2023-03-07T22:41:24.957Z,5.50
2023-03-07T22:43:53.875Z,5.63
2023-03-07T22:46:22.631Z,4.88
2023-03-07T22:48:57.409Z,5.07
2023-03-07T22:51:26.424Z,4.88
2023-03-07T22:53:55.386Z,5.45
2023-03-07T22:56:27.804Z,5.15
2023-03-07T22:58:56.857Z,5.30
2023-03-07T23:01:27.293Z,5.22
2023-03-07T23:03:57.555Z,5.55
2023-03-07T23:06:29.677Z,5.60
2023-03-07T23:08:59.885Z,5.03
2023-03-07T23:11:29.522Z,5.10
2023-03-07T23:13:58.498Z,5.53
2023-03-07T23:16:29.671Z,4.88
2023-03-07T23:18:58.903Z,5.72
2023-03-07T23:21:30.184Z,5.35
2023-03-07T23:23:59.539Z,5.05
2023-03-07T23:26:34.570Z,6.32
2023-03-07T23:29:05.965Z,5.60
2023-03-07T23:31:37.115Z,5.35
2023-03-07T23:34:09.273Z,4.90
2023-03-07T23:36:37.863Z,5.53
2023-03-07T23:39:08.234Z,5.15
2023-03-07T23:41:36.716Z,5.22
2023-03-07T23:44:05.738Z,5.78
2023-03-07T23:46:34.320Z,5.38
2023-03-07T23:49:03.222Z,5.65
2023-03-07T23:51:31.658Z,5.63
2023-03-07T23:54:00.592Z,5.53
2023-03-07T23:56:29.123Z,4.90
2023-03-07T23:58:58.005Z,5.40
